sensor_id;sensor_type;location;lat;lon;timestamp;P1;durP1;ratioP1;P2;durP2;ratioP2
43088;SDS011;28709;52.030;5.652;2023-05-09T00:01:47;36.28;;;20.88;;
43088;SDS011;28709;52.030;5.652;2023-05-09T00:04:14;37.25;;;21.88;;
43088;SDS011;28709;52.030;5.652;2023-05-09T00:06:40;42.90;;;24.02;;
43088;SDS011;28709;52.030;5.652;2023-05-09T00:09:06;35.00;;;19.25;;
43088;SDS011;28709;52.030;5.652;2023-05-09T00:11:32;36.50;;;20.58;;
43088;SDS011;28709;52.030;5.652;2023-05-09T00:13:57;32.10;;;19.63;;
43088;SDS011;28709;52.030;5.652;2023-05-09T00:16:23;34.53;;;19.60;;
43088;SDS011;28709;52.030;5.652;2023-05-09T00:18:49;41.47;;;23.60;;
43088;SDS011;28709;52.030;5.652;2023-05-09T00:21:15;43.50;;;25.33;;
43088;SDS011;28709;52.030;5.652;2023-05-09T00:23:40;39.35;;;24.08;;
43088;SDS011;28709;52.030;5.652;2023-05-09T00:26:06;50.50;;;28.02;;
43088;SDS011;28709;52.030;5.652;2023-05-09T00:28:34;38.42;;;21.10;;
43088;SDS011;28709;52.030;5.652;2023-05-09T00:30:59;35.22;;;20.35;;
43088;SDS011;28709;52.030;5.652;2023-05-09T00:33:25;30.70;;;17.85;;
43088;SDS011;28709;52.030;5.652;2023-05-09T00:35:54;37.53;;;19.77;;
43088;SDS011;28709;52.030;5.652;2023-05-09T00:38:21;33.28;;;19.30;;
43088;SDS011;28709;52.030;5.652;2023-05-09T00:40:47;39.60;;;22.33;;
43088;SDS011;28709;52.030;5.652;2023-05-09T00:43:13;36.83;;;20.45;;
43088;SDS011;28709;52.030;5.652;2023-05-09T00:45:38;37.05;;;21.88;;
43088;SDS011;28709;52.030;5.652;2023-05-09T00:48:04;50.92;;;24.02;;
43088;SDS011;28709;52.030;5.652;2023-05-09T00:50:30;42.25;;;22.35;;
43088;SDS011;28709;52.030;5.652;2023-05-09T00:52:56;39.88;;;21.65;;
43088;SDS011;28709;52.030;5.652;2023-05-09T00:55:22;33.60;;;19.50;;
43088;SDS011;28709;52.030;5.652;2023-05-09T00:57:48;37.95;;;19.85;;
43088;SDS011;28709;52.030;5.652;2023-05-09T01:00:13;41.60;;;21.95;;
43088;SDS011;28709;52.030;5.652;2023-05-09T01:02:44;35.05;;;19.10;;
43088;SDS011;28709;52.030;5.652;2023-05-09T01:05:12;34.58;;;19.33;;
43088;SDS011;28709;52.030;5.652;2023-05-09T01:07:48;34.13;;;18.88;;
43088;SDS011;28709;52.030;5.652;2023-05-09T01:10:20;44.40;;;22.90;;
43088;SDS011;28709;52.030;5.652;2023-05-09T01:12:58;38.13;;;21.15;;
43088;SDS011;28709;52.030;5.652;2023-05-09T01:21:10;41.53;;;22.10;;
43088;SDS011;28709;52.030;5.652;2023-05-09T01:31:38;46.90;;;24.92;;
43088;SDS011;28709;52.030;5.652;2023-05-09T01:34:06;44.90;;;23.92;;
43088;SDS011;28709;52.030;5.652;2023-05-09T01:36:34;47.15;;;24.85;;
43088;SDS011;28709;52.030;5.652;2023-05-09T01:39:01;54.55;;;27.77;;
43088;SDS011;28709;52.030;5.652;2023-05-09T01:41:29;45.40;;;23.85;;
43088;SDS011;28709;52.030;5.652;2023-05-09T01:43:59;49.28;;;25.70;;
43088;SDS011;28709;52.030;5.652;2023-05-09T01:46:28;49.45;;;26.05;;
43088;SDS011;28709;52.030;5.652;2023-05-09T01:48:54;57.28;;;26.85;;
43088;SDS011;28709;52.030;5.652;2023-05-09T01:51:21;53.90;;;29.45;;
43088;SDS011;28709;52.030;5.652;2023-05-09T01:53:48;48.78;;;24.88;;
43088;SDS011;28709;52.030;5.652;2023-05-09T01:56:16;45.15;;;25.27;;
43088;SDS011;28709;52.030;5.652;2023-05-09T01:58:45;47.35;;;23.48;;
43088;SDS011;28709;52.030;5.652;2023-05-09T02:01:14;44.92;;;23.30;;
43088;SDS011;28709;52.030;5.652;2023-05-09T02:03:40;51.42;;;25.27;;
43088;SDS011;28709;52.030;5.652;2023-05-09T02:06:09;51.10;;;25.13;;
43088;SDS011;28709;52.030;5.652;2023-05-09T02:08:35;46.97;;;23.60;;
43088;SDS011;28709;52.030;5.652;2023-05-09T02:11:02;41.95;;;22.60;;
43088;SDS011;28709;52.030;5.652;2023-05-09T02:13:28;45.28;;;24.08;;
43088;SDS011;28709;52.030;5.652;2023-05-09T02:15:53;54.13;;;27.90;;
43088;SDS011;28709;52.030;5.652;2023-05-09T02:18:20;46.97;;;24.25;;
43088;SDS011;28709;52.030;5.652;2023-05-09T02:20:46;52.50;;;28.58;;
43088;SDS011;28709;52.030;5.652;2023-05-09T02:23:12;53.63;;;25.98;;
43088;SDS011;28709;52.030;5.652;2023-05-09T02:25:38;53.95;;;28.65;;
43088;SDS011;28709;52.030;5.652;2023-05-09T02:28:05;59.88;;;29.40;;
43088;SDS011;28709;52.030;5.652;2023-05-09T02:30:34;58.88;;;28.77;;
43088;SDS011;28709;52.030;5.652;2023-05-09T02:33:05;65.15;;;31.67;;
43088;SDS011;28709;52.030;5.652;2023-05-09T02:35:32;52.88;;;28.58;;
43088;SDS011;28709;52.030;5.652;2023-05-09T02:37:59;54.38;;;28.30;;
43088;SDS011;28709;52.030;5.652;2023-05-09T02:40:26;53.25;;;28.50;;
43088;SDS011;28709;52.030;5.652;2023-05-09T02:42:53;58.13;;;30.13;;
43088;SDS011;28709;52.030;5.652;2023-05-09T02:45:19;59.53;;;31.48;;
43088;SDS011;28709;52.030;5.652;2023-05-09T02:47:44;62.13;;;31.95;;
43088;SDS011;28709;52.030;5.652;2023-05-09T02:50:10;63.75;;;32.17;;
43088;SDS011;28709;52.030;5.652;2023-05-09T02:52:36;68.53;;;33.22;;
43088;SDS011;28709;52.030;5.652;2023-05-09T02:55:02;52.70;;;28.23;;
43088;SDS011;28709;52.030;5.652;2023-05-09T02:57:28;56.63;;;29.92;;
43088;SDS011;28709;52.030;5.652;2023-05-09T02:59:54;50.47;;;26.90;;
43088;SDS011;28709;52.030;5.652;2023-05-09T03:02:20;53.10;;;29.58;;
43088;SDS011;28709;52.030;5.652;2023-05-09T03:04:47;53.08;;;28.00;;
43088;SDS011;28709;52.030;5.652;2023-05-09T03:07:13;53.15;;;27.98;;
43088;SDS011;28709;52.030;5.652;2023-05-09T03:09:39;57.50;;;26.23;;
43088;SDS011;28709;52.030;5.652;2023-05-09T03:12:05;45.60;;;24.65;;
43088;SDS011;28709;52.030;5.652;2023-05-09T03:14:30;53.45;;;25.50;;
43088;SDS011;28709;52.030;5.652;2023-05-09T03:16:56;44.42;;;24.60;;
43088;SDS011;28709;52.030;5.652;2023-05-09T03:19:22;40.20;;;23.35;;
43088;SDS011;28709;52.030;5.652;2023-05-09T03:21:47;39.80;;;21.30;;
43088;SDS011;28709;52.030;5.652;2023-05-09T03:24:13;37.63;;;21.20;;
43088;SDS011;28709;52.030;5.652;2023-05-09T03:26:39;37.63;;;20.52;;
43088;SDS011;28709;52.030;5.652;2023-05-09T03:29:04;34.03;;;18.27;;
43088;SDS011;28709;52.030;5.652;2023-05-09T03:31:30;38.70;;;20.70;;
43088;SDS011;28709;52.030;5.652;2023-05-09T03:33:56;37.13;;;19.08;;
43088;SDS011;28709;52.030;5.652;2023-05-09T03:36:22;34.55;;;18.15;;
43088;SDS011;28709;52.030;5.652;2023-05-09T03:38:47;33.58;;;18.77;;
43088;SDS011;28709;52.030;5.652;2023-05-09T03:41:14;35.30;;;19.08;;
43088;SDS011;28709;52.030;5.652;2023-05-09T03:43:41;35.95;;;18.67;;
43088;SDS011;28709;52.030;5.652;2023-05-09T03:46:06;39.85;;;21.60;;
43088;SDS011;28709;52.030;5.652;2023-05-09T03:48:32;34.42;;;19.13;;
43088;SDS011;28709;52.030;5.652;2023-05-09T03:50:57;32.38;;;18.13;;
43088;SDS011;28709;52.030;5.652;2023-05-09T03:53:23;36.45;;;20.05;;
43088;SDS011;28709;52.030;5.652;2023-05-09T03:55:49;38.45;;;20.50;;
43088;SDS011;28709;52.030;5.652;2023-05-09T03:58:14;40.13;;;21.27;;
43088;SDS011;28709;52.030;5.652;2023-05-09T04:00:40;33.40;;;18.75;;
43088;SDS011;28709;52.030;5.652;2023-05-09T04:03:06;35.53;;;20.27;;
43088;SDS011;28709;52.030;5.652;2023-05-09T04:05:32;36.75;;;21.63;;
43088;SDS011;28709;52.030;5.652;2023-05-09T04:07:59;36.80;;;19.90;;
43088;SDS011;28709;52.030;5.652;2023-05-09T04:10:24;34.65;;;19.05;;
43088;SDS011;28709;52.030;5.652;2023-05-09T04:12:50;35.33;;;20.23;;
43088;SDS011;28709;52.030;5.652;2023-05-09T04:15:16;33.00;;;20.08;;
43088;SDS011;28709;52.030;5.652;2023-05-09T04:17:42;31.90;;;19.20;;
43088;SDS011;28709;52.030;5.652;2023-05-09T04:20:08;39.38;;;21.40;;
43088;SDS011;28709;52.030;5.652;2023-05-09T04:22:34;35.22;;;19.95;;
43088;SDS011;28709;52.030;5.652;2023-05-09T04:25:00;35.17;;;20.38;;
43088;SDS011;28709;52.030;5.652;2023-05-09T04:27:28;34.45;;;20.25;;
43088;SDS011;28709;52.030;5.652;2023-05-09T04:29:53;40.80;;;19.83;;
43088;SDS011;28709;52.030;5.652;2023-05-09T04:32:19;32.83;;;18.52;;
43088;SDS011;28709;52.030;5.652;2023-05-09T04:34:46;32.80;;;19.10;;
43088;SDS011;28709;52.030;5.652;2023-05-09T04:37:12;34.33;;;19.23;;
43088;SDS011;28709;52.030;5.652;2023-05-09T04:39:38;31.05;;;17.85;;
43088;SDS011;28709;52.030;5.652;2023-05-09T04:42:03;30.27;;;17.15;;
43088;SDS011;28709;52.030;5.652;2023-05-09T04:44:29;31.10;;;17.40;;
43088;SDS011;28709;52.030;5.652;2023-05-09T04:46:55;30.85;;;18.02;;
43088;SDS011;28709;52.030;5.652;2023-05-09T04:49:22;35.42;;;20.00;;
43088;SDS011;28709;52.030;5.652;2023-05-09T04:51:48;39.65;;;21.70;;
43088;SDS011;28709;52.030;5.652;2023-05-09T04:54:15;32.72;;;18.52;;
43088;SDS011;28709;52.030;5.652;2023-05-09T04:56:40;32.22;;;19.08;;
43088;SDS011;28709;52.030;5.652;2023-05-09T04:59:06;33.10;;;19.00;;
43088;SDS011;28709;52.030;5.652;2023-05-09T05:01:31;30.00;;;18.13;;
43088;SDS011;28709;52.030;5.652;2023-05-09T05:03:57;37.10;;;19.85;;
43088;SDS011;28709;52.030;5.652;2023-05-09T05:06:23;33.03;;;18.92;;
43088;SDS011;28709;52.030;5.652;2023-05-09T05:08:48;27.88;;;17.60;;
43088;SDS011;28709;52.030;5.652;2023-05-09T05:11:14;32.58;;;17.38;;
43088;SDS011;28709;52.030;5.652;2023-05-09T05:13:41;32.63;;;18.00;;
43088;SDS011;28709;52.030;5.652;2023-05-09T05:16:08;32.35;;;19.23;;
43088;SDS011;28709;52.030;5.652;2023-05-09T05:18:34;28.60;;;17.83;;
43088;SDS011;28709;52.030;5.652;2023-05-09T05:20:59;30.15;;;17.45;;
43088;SDS011;28709;52.030;5.652;2023-05-09T05:23:25;31.98;;;19.05;;
43088;SDS011;28709;52.030;5.652;2023-05-09T05:25:51;37.53;;;19.48;;
43088;SDS011;28709;52.030;5.652;2023-05-09T05:28:16;32.55;;;17.95;;
43088;SDS011;28709;52.030;5.652;2023-05-09T05:30:42;30.30;;;18.20;;
43088;SDS011;28709;52.030;5.652;2023-05-09T05:33:08;33.30;;;18.55;;
43088;SDS011;28709;52.030;5.652;2023-05-09T05:35:33;30.45;;;16.98;;
43088;SDS011;28709;52.030;5.652;2023-05-09T05:37:59;33.85;;;19.55;;
43088;SDS011;28709;52.030;5.652;2023-05-09T05:40:25;31.15;;;19.17;;
43088;SDS011;28709;52.030;5.652;2023-05-09T05:42:51;28.98;;;16.33;;
43088;SDS011;28709;52.030;5.652;2023-05-09T05:45:16;30.60;;;16.90;;
43088;SDS011;28709;52.030;5.652;2023-05-09T05:47:42;33.13;;;17.88;;
43088;SDS011;28709;52.030;5.652;2023-05-09T05:50:08;29.45;;;17.77;;
43088;SDS011;28709;52.030;5.652;2023-05-09T05:52:39;29.02;;;16.90;;
43088;SDS011;28709;52.030;5.652;2023-05-09T05:55:05;28.05;;;16.20;;
43088;SDS011;28709;52.030;5.652;2023-05-09T05:57:31;25.35;;;15.63;;
43088;SDS011;28709;52.030;5.652;2023-05-09T05:59:58;27.92;;;16.02;;
43088;SDS011;28709;52.030;5.652;2023-05-09T06:02:24;31.80;;;16.83;;
43088;SDS011;28709;52.030;5.652;2023-05-09T06:04:50;33.05;;;18.33;;
43088;SDS011;28709;52.030;5.652;2023-05-09T06:07:15;33.05;;;17.20;;
43088;SDS011;28709;52.030;5.652;2023-05-09T06:09:41;28.10;;;16.13;;
43088;SDS011;28709;52.030;5.652;2023-05-09T06:12:07;26.05;;;15.23;;
43088;SDS011;28709;52.030;5.652;2023-05-09T06:14:33;28.35;;;14.75;;
43088;SDS011;28709;52.030;5.652;2023-05-09T06:16:58;22.70;;;13.88;;
43088;SDS011;28709;52.030;5.652;2023-05-09T06:19:24;25.95;;;15.35;;
43088;SDS011;28709;52.030;5.652;2023-05-09T06:21:50;31.17;;;15.80;;
43088;SDS011;28709;52.030;5.652;2023-05-09T06:24:16;24.88;;;14.50;;
43088;SDS011;28709;52.030;5.652;2023-05-09T06:26:41;23.88;;;14.48;;
43088;SDS011;28709;52.030;5.652;2023-05-09T06:29:07;25.48;;;15.18;;
43088;SDS011;28709;52.030;5.652;2023-05-09T06:31:33;29.95;;;15.40;;
43088;SDS011;28709;52.030;5.652;2023-05-09T06:34:05;24.40;;;14.65;;
43088;SDS011;28709;52.030;5.652;2023-05-09T06:36:31;22.27;;;13.98;;
43088;SDS011;28709;52.030;5.652;2023-05-09T06:38:57;24.13;;;14.57;;
43088;SDS011;28709;52.030;5.652;2023-05-09T06:41:23;27.23;;;15.10;;
43088;SDS011;28709;52.030;5.652;2023-05-09T06:43:49;23.42;;;13.57;;
43088;SDS011;28709;52.030;5.652;2023-05-09T06:46:14;21.13;;;13.30;;
43088;SDS011;28709;52.030;5.652;2023-05-09T06:48:40;18.80;;;11.82;;
43088;SDS011;28709;52.030;5.652;2023-05-09T06:51:06;21.63;;;13.65;;
43088;SDS011;28709;52.030;5.652;2023-05-09T06:53:32;21.52;;;12.40;;
43088;SDS011;28709;52.030;5.652;2023-05-09T06:55:57;22.45;;;12.20;;
43088;SDS011;28709;52.030;5.652;2023-05-09T06:58:23;16.45;;;10.98;;
43088;SDS011;28709;52.030;5.652;2023-05-09T07:00:49;18.45;;;11.70;;
43088;SDS011;28709;52.030;5.652;2023-05-09T07:03:15;17.02;;;11.35;;
43088;SDS011;28709;52.030;5.652;2023-05-09T07:05:41;16.15;;;11.02;;
43088;SDS011;28709;52.030;5.652;2023-05-09T07:08:06;20.73;;;12.70;;
43088;SDS011;28709;52.030;5.652;2023-05-09T07:10:32;17.05;;;11.27;;
43088;SDS011;28709;52.030;5.652;2023-05-09T07:12:58;18.67;;;11.43;;
43088;SDS011;28709;52.030;5.652;2023-05-09T07:15:23;17.42;;;11.85;;
43088;SDS011;28709;52.030;5.652;2023-05-09T07:17:49;19.55;;;13.40;;
43088;SDS011;28709;52.030;5.652;2023-05-09T07:20:14;18.27;;;12.68;;
43088;SDS011;28709;52.030;5.652;2023-05-09T07:22:40;24.45;;;13.32;;
43088;SDS011;28709;52.030;5.652;2023-05-09T07:25:06;23.02;;;12.98;;
43088;SDS011;28709;52.030;5.652;2023-05-09T07:27:32;18.40;;;13.52;;
43088;SDS011;28709;52.030;5.652;2023-05-09T07:29:58;19.95;;;12.88;;
43088;SDS011;28709;52.030;5.652;2023-05-09T07:32:24;18.98;;;13.13;;
43088;SDS011;28709;52.030;5.652;2023-05-09T07:34:52;19.38;;;13.18;;
43088;SDS011;28709;52.030;5.652;2023-05-09T07:37:18;21.10;;;12.80;;
43088;SDS011;28709;52.030;5.652;2023-05-09T07:39:44;15.70;;;13.00;;
43088;SDS011;28709;52.030;5.652;2023-05-09T07:42:11;18.23;;;12.65;;
43088;SDS011;28709;52.030;5.652;2023-05-09T07:44:37;19.80;;;14.35;;
43088;SDS011;28709;52.030;5.652;2023-05-09T07:47:03;21.38;;;11.45;;
43088;SDS011;28709;52.030;5.652;2023-05-09T07:49:30;19.73;;;12.57;;
43088;SDS011;28709;52.030;5.652;2023-05-09T07:51:56;22.60;;;14.18;;
43088;SDS011;28709;52.030;5.652;2023-05-09T07:54:21;18.25;;;12.45;;
43088;SDS011;28709;52.030;5.652;2023-05-09T07:56:47;16.55;;;11.98;;
43088;SDS011;28709;52.030;5.652;2023-05-09T07:59:13;17.58;;;12.10;;
43088;SDS011;28709;52.030;5.652;2023-05-09T08:01:39;19.05;;;14.13;;
43088;SDS011;28709;52.030;5.652;2023-05-09T08:04:04;16.30;;;12.45;;
43088;SDS011;28709;52.030;5.652;2023-05-09T08:06:31;18.20;;;12.23;;
43088;SDS011;28709;52.030;5.652;2023-05-09T08:08:56;15.30;;;10.95;;
43088;SDS011;28709;52.030;5.652;2023-05-09T08:11:22;15.43;;;10.70;;
43088;SDS011;28709;52.030;5.652;2023-05-09T08:13:48;16.40;;;11.38;;
43088;SDS011;28709;52.030;5.652;2023-05-09T08:16:14;16.50;;;11.77;;
43088;SDS011;28709;52.030;5.652;2023-05-09T08:18:41;18.08;;;10.35;;
43088;SDS011;28709;52.030;5.652;2023-05-09T08:21:07;16.35;;;12.43;;
43088;SDS011;28709;52.030;5.652;2023-05-09T08:23:33;14.32;;;10.10;;
43088;SDS011;28709;52.030;5.652;2023-05-09T08:25:59;12.57;;;9.90;;
43088;SDS011;28709;52.030;5.652;2023-05-09T08:28:25;15.02;;;9.43;;
43088;SDS011;28709;52.030;5.652;2023-05-09T08:30:53;15.00;;;9.55;;
43088;SDS011;28709;52.030;5.652;2023-05-09T08:33:19;11.38;;;8.48;;
43088;SDS011;28709;52.030;5.652;2023-05-09T08:35:48;10.40;;;7.97;;
43088;SDS011;28709;52.030;5.652;2023-05-09T08:38:18;9.32;;;8.15;;
43088;SDS011;28709;52.030;5.652;2023-05-09T08:40:44;10.38;;;8.05;;
43088;SDS011;28709;52.030;5.652;2023-05-09T08:43:10;10.77;;;7.35;;
43088;SDS011;28709;52.030;5.652;2023-05-09T08:45:47;8.05;;;6.95;;
43088;SDS011;28709;52.030;5.652;2023-05-09T08:48:25;10.13;;;7.05;;
43088;SDS011;28709;52.030;5.652;2023-05-09T08:50:52;13.05;;;8.38;;
43088;SDS011;28709;52.030;5.652;2023-05-09T08:53:20;11.15;;;8.15;;
43088;SDS011;28709;52.030;5.652;2023-05-09T08:55:46;10.07;;;7.60;;
43088;SDS011;28709;52.030;5.652;2023-05-09T08:58:14;9.23;;;6.53;;
43088;SDS011;28709;52.030;5.652;2023-05-09T09:00:41;9.43;;;7.07;;
43088;SDS011;28709;52.030;5.652;2023-05-09T09:03:06;9.15;;;7.35;;
43088;SDS011;28709;52.030;5.652;2023-05-09T09:05:33;8.82;;;7.75;;
43088;SDS011;28709;52.030;5.652;2023-05-09T09:08:01;8.10;;;6.30;;
43088;SDS011;28709;52.030;5.652;2023-05-09T09:10:29;8.15;;;6.35;;
43088;SDS011;28709;52.030;5.652;2023-05-09T09:12:57;8.32;;;5.60;;
43088;SDS011;28709;52.030;5.652;2023-05-09T09:15:25;8.48;;;5.57;;
43088;SDS011;28709;52.030;5.652;2023-05-09T09:17:54;6.65;;;5.53;;
43088;SDS011;28709;52.030;5.652;2023-05-09T09:20:23;7.00;;;5.18;;
43088;SDS011;28709;52.030;5.652;2023-05-09T09:22:51;7.57;;;6.00;;
43088;SDS011;28709;52.030;5.652;2023-05-09T09:25:23;8.77;;;5.30;;
43088;SDS011;28709;52.030;5.652;2023-05-09T09:27:48;8.52;;;6.75;;
43088;SDS011;28709;52.030;5.652;2023-05-09T09:30:14;8.20;;;5.80;;
43088;SDS011;28709;52.030;5.652;2023-05-09T09:32:40;9.40;;;6.35;;
43088;SDS011;28709;52.030;5.652;2023-05-09T09:35:06;9.85;;;6.43;;
43088;SDS011;28709;52.030;5.652;2023-05-09T09:37:34;8.73;;;6.78;;
43088;SDS011;28709;52.030;5.652;2023-05-09T09:40:00;7.82;;;6.25;;
43088;SDS011;28709;52.030;5.652;2023-05-09T09:42:26;10.55;;;6.72;;
43088;SDS011;28709;52.030;5.652;2023-05-09T09:45:17;9.93;;;6.03;;
43088;SDS011;28709;52.030;5.652;2023-05-09T09:47:44;7.53;;;5.75;;
43088;SDS011;28709;52.030;5.652;2023-05-09T09:50:14;8.02;;;6.07;;
43088;SDS011;28709;52.030;5.652;2023-05-09T09:52:48;5.72;;;4.50;;
43088;SDS011;28709;52.030;5.652;2023-05-09T09:55:14;9.40;;;4.93;;
43088;SDS011;28709;52.030;5.652;2023-05-09T09:57:40;5.93;;;4.57;;
43088;SDS011;28709;52.030;5.652;2023-05-09T10:00:09;4.82;;;4.22;;
43088;SDS011;28709;52.030;5.652;2023-05-09T10:03:12;6.35;;;4.43;;
43088;SDS011;28709;52.030;5.652;2023-05-09T10:05:38;5.82;;;4.60;;
43088;SDS011;28709;52.030;5.652;2023-05-09T10:08:04;7.88;;;4.82;;
43088;SDS011;28709;52.030;5.652;2023-05-09T10:10:33;8.00;;;4.75;;
43088;SDS011;28709;52.030;5.652;2023-05-09T10:13:03;5.35;;;4.63;;
43088;SDS011;28709;52.030;5.652;2023-05-09T10:15:35;7.18;;;4.40;;
43088;SDS011;28709;52.030;5.652;2023-05-09T10:18:01;6.93;;;4.90;;
43088;SDS011;28709;52.030;5.652;2023-05-09T10:20:29;5.75;;;4.85;;
43088;SDS011;28709;52.030;5.652;2023-05-09T10:22:56;6.90;;;5.03;;
43088;SDS011;28709;52.030;5.652;2023-05-09T10:25:47;7.82;;;5.47;;
43088;SDS011;28709;52.030;5.652;2023-05-09T10:28:13;10.68;;;5.22;;
43088;SDS011;28709;52.030;5.652;2023-05-09T10:31:03;8.07;;;5.47;;
43088;SDS011;28709;52.030;5.652;2023-05-09T10:33:48;7.45;;;5.35;;
43088;SDS011;28709;52.030;5.652;2023-05-09T10:36:18;7.28;;;5.22;;
43088;SDS011;28709;52.030;5.652;2023-05-09T10:38:46;6.03;;;4.28;;
43088;SDS011;28709;52.030;5.652;2023-05-09T10:41:13;5.85;;;4.10;;
43088;SDS011;28709;52.030;5.652;2023-05-09T10:43:40;8.10;;;5.50;;
43088;SDS011;28709;52.030;5.652;2023-05-09T10:46:07;7.55;;;4.97;;
43088;SDS011;28709;52.030;5.652;2023-05-09T10:48:33;6.95;;;4.50;;
43088;SDS011;28709;52.030;5.652;2023-05-09T10:51:00;8.80;;;5.18;;
43088;SDS011;28709;52.030;5.652;2023-05-09T10:53:40;6.68;;;4.95;;
43088;SDS011;28709;52.030;5.652;2023-05-09T10:56:07;7.35;;;5.88;;
43088;SDS011;28709;52.030;5.652;2023-05-09T10:58:33;5.82;;;5.03;;
43088;SDS011;28709;52.030;5.652;2023-05-09T11:01:04;9.02;;;5.47;;
43088;SDS011;28709;52.030;5.652;2023-05-09T11:11:56;9.98;;;5.30;;
43088;SDS011;28709;52.030;5.652;2023-05-09T11:17:01;5.00;;;3.55;;
43088;SDS011;28709;52.030;5.652;2023-05-09T11:22:19;5.78;;;3.50;;
43088;SDS011;28709;52.030;5.652;2023-05-09T11:27:40;4.43;;;3.72;;
43088;SDS011;28709;52.030;5.652;2023-05-09T11:30:07;7.97;;;3.95;;
43088;SDS011;28709;52.030;5.652;2023-05-09T11:32:40;8.02;;;4.90;;
43088;SDS011;28709;52.030;5.652;2023-05-09T11:35:17;7.30;;;4.93;;
43088;SDS011;28709;52.030;5.652;2023-05-09T11:37:45;5.85;;;4.78;;
43088;SDS011;28709;52.030;5.652;2023-05-09T11:40:24;7.78;;;4.82;;
43088;SDS011;28709;52.030;5.652;2023-05-09T11:42:52;6.13;;;4.75;;
43088;SDS011;28709;52.030;5.652;2023-05-09T11:45:20;9.40;;;5.57;;
43088;SDS011;28709;52.030;5.652;2023-05-09T11:47:47;6.93;;;5.28;;
43088;SDS011;28709;52.030;5.652;2023-05-09T11:50:14;6.38;;;5.38;;
43088;SDS011;28709;52.030;5.652;2023-05-09T11:52:41;8.63;;;5.68;;
43088;SDS011;28709;52.030;5.652;2023-05-09T11:57:41;9.02;;;5.78;;
43088;SDS011;28709;52.030;5.652;2023-05-09T12:00:18;7.05;;;5.35;;
43088;SDS011;28709;52.030;5.652;2023-05-09T12:02:48;8.38;;;4.85;;
43088;SDS011;28709;52.030;5.652;2023-05-09T12:05:19;9.13;;;5.78;;
43088;SDS011;28709;52.030;5.652;2023-05-09T12:07:46;7.10;;;5.18;;
43088;SDS011;28709;52.030;5.652;2023-05-09T12:12:47;8.07;;;4.75;;
43088;SDS011;28709;52.030;5.652;2023-05-09T12:15:15;11.43;;;4.70;;
43088;SDS011;28709;52.030;5.652;2023-05-09T12:17:44;7.47;;;5.00;;
43088;SDS011;28709;52.030;5.652;2023-05-09T12:20:10;5.43;;;4.40;;
43088;SDS011;28709;52.030;5.652;2023-05-09T12:22:36;8.88;;;5.53;;
43088;SDS011;28709;52.030;5.652;2023-05-09T12:25:06;5.15;;;4.10;;
43088;SDS011;28709;52.030;5.652;2023-05-09T12:27:34;6.30;;;5.40;;
43088;SDS011;28709;52.030;5.652;2023-05-09T12:30:01;6.63;;;4.47;;
43088;SDS011;28709;52.030;5.652;2023-05-09T12:32:39;5.45;;;4.15;;
43088;SDS011;28709;52.030;5.652;2023-05-09T12:35:07;9.73;;;5.47;;
43088;SDS011;28709;52.030;5.652;2023-05-09T12:37:34;5.32;;;4.80;;
43088;SDS011;28709;52.030;5.652;2023-05-09T12:42:30;6.63;;;4.95;;
43088;SDS011;28709;52.030;5.652;2023-05-09T12:44:56;8.82;;;4.18;;
43088;SDS011;28709;52.030;5.652;2023-05-09T12:47:25;8.27;;;5.63;;
43088;SDS011;28709;52.030;5.652;2023-05-09T12:49:58;5.25;;;4.22;;
43088;SDS011;28709;52.030;5.652;2023-05-09T12:52:38;6.00;;;4.65;;
43088;SDS011;28709;52.030;5.652;2023-05-09T12:55:06;5.65;;;4.38;;
43088;SDS011;28709;52.030;5.652;2023-05-09T12:57:33;5.85;;;3.70;;
43088;SDS011;28709;52.030;5.652;2023-05-09T12:59:59;4.63;;;4.03;;
43088;SDS011;28709;52.030;5.652;2023-05-09T13:02:25;5.70;;;3.97;;
43088;SDS011;28709;52.030;5.652;2023-05-09T13:05:10;6.22;;;4.32;;
43088;SDS011;28709;52.030;5.652;2023-05-09T13:10:14;5.57;;;3.92;;
43088;SDS011;28709;52.030;5.652;2023-05-09T13:12:45;3.95;;;3.55;;
43088;SDS011;28709;52.030;5.652;2023-05-09T13:15:13;5.28;;;4.10;;
43088;SDS011;28709;52.030;5.652;2023-05-09T13:17:40;5.95;;;4.40;;
43088;SDS011;28709;52.030;5.652;2023-05-09T13:20:06;5.13;;;4.10;;
43088;SDS011;28709;52.030;5.652;2023-05-09T13:22:33;6.00;;;4.63;;
43088;SDS011;28709;52.030;5.652;2023-05-09T13:24:59;4.97;;;4.32;;
43088;SDS011;28709;52.030;5.652;2023-05-09T13:27:25;7.40;;;4.70;;
43088;SDS011;28709;52.030;5.652;2023-05-09T13:29:51;5.45;;;4.25;;
43088;SDS011;28709;52.030;5.652;2023-05-09T13:32:17;10.02;;;4.05;;
43088;SDS011;28709;52.030;5.652;2023-05-09T13:34:43;4.55;;;3.70;;
43088;SDS011;28709;52.030;5.652;2023-05-09T13:37:09;4.15;;;3.60;;
43088;SDS011;28709;52.030;5.652;2023-05-09T13:39:35;6.45;;;3.38;;
43088;SDS011;28709;52.030;5.652;2023-05-09T13:42:00;4.55;;;3.25;;
43088;SDS011;28709;52.030;5.652;2023-05-09T13:44:26;4.13;;;3.72;;
43088;SDS011;28709;52.030;5.652;2023-05-09T13:46:52;4.32;;;3.60;;
43088;SDS011;28709;52.030;5.652;2023-05-09T13:49:18;4.68;;;3.50;;
43088;SDS011;28709;52.030;5.652;2023-05-09T13:51:44;4.55;;;3.72;;
43088;SDS011;28709;52.030;5.652;2023-05-09T13:54:10;5.53;;;4.22;;
43088;SDS011;28709;52.030;5.652;2023-05-09T13:56:39;6.15;;;4.00;;
43088;SDS011;28709;52.030;5.652;2023-05-09T13:59:08;7.45;;;5.13;;
43088;SDS011;28709;52.030;5.652;2023-05-09T14:01:34;6.03;;;4.75;;
43088;SDS011;28709;52.030;5.652;2023-05-09T14:04:00;6.28;;;4.57;;
43088;SDS011;28709;52.030;5.652;2023-05-09T14:06:26;4.88;;;4.38;;
43088;SDS011;28709;52.030;5.652;2023-05-09T14:08:53;7.80;;;4.82;;
43088;SDS011;28709;52.030;5.652;2023-05-09T14:11:20;6.78;;;4.47;;
43088;SDS011;28709;52.030;5.652;2023-05-09T14:13:45;4.50;;;3.85;;
43088;SDS011;28709;52.030;5.652;2023-05-09T14:16:11;4.22;;;3.70;;
43088;SDS011;28709;52.030;5.652;2023-05-09T14:18:37;5.05;;;4.18;;
43088;SDS011;28709;52.030;5.652;2023-05-09T14:21:03;4.85;;;3.70;;
43088;SDS011;28709;52.030;5.652;2023-05-09T14:23:29;6.65;;;4.20;;
43088;SDS011;28709;52.030;5.652;2023-05-09T14:25:55;4.90;;;4.10;;
43088;SDS011;28709;52.030;5.652;2023-05-09T14:28:21;6.30;;;4.47;;
43088;SDS011;28709;52.030;5.652;2023-05-09T14:30:47;10.13;;;4.30;;
43088;SDS011;28709;52.030;5.652;2023-05-09T14:33:12;6.70;;;4.82;;
43088;SDS011;28709;52.030;5.652;2023-05-09T14:35:38;5.55;;;4.88;;
43088;SDS011;28709;52.030;5.652;2023-05-09T14:38:04;6.07;;;5.18;;
43088;SDS011;28709;52.030;5.652;2023-05-09T14:40:30;5.80;;;4.60;;
43088;SDS011;28709;52.030;5.652;2023-05-09T14:42:59;6.30;;;4.82;;
43088;SDS011;28709;52.030;5.652;2023-05-09T14:45:28;6.78;;;5.43;;
43088;SDS011;28709;52.030;5.652;2023-05-09T14:47:55;7.13;;;5.85;;
43088;SDS011;28709;52.030;5.652;2023-05-09T14:50:21;7.95;;;6.10;;
43088;SDS011;28709;52.030;5.652;2023-05-09T14:52:47;7.90;;;6.53;;
43088;SDS011;28709;52.030;5.652;2023-05-09T14:55:15;5.97;;;4.82;;
43088;SDS011;28709;52.030;5.652;2023-05-09T14:57:44;4.70;;;4.22;;
43088;SDS011;28709;52.030;5.652;2023-05-09T15:00:10;7.00;;;5.38;;
43088;SDS011;28709;52.030;5.652;2023-05-09T15:02:36;7.57;;;5.10;;
43088;SDS011;28709;52.030;5.652;2023-05-09T15:05:03;12.75;;;6.00;;
43088;SDS011;28709;52.030;5.652;2023-05-09T15:07:29;5.90;;;5.30;;
43088;SDS011;28709;52.030;5.652;2023-05-09T15:09:55;5.85;;;5.28;;
43088;SDS011;28709;52.030;5.652;2023-05-09T15:12:21;7.35;;;5.13;;
43088;SDS011;28709;52.030;5.652;2023-05-09T15:14:46;7.43;;;6.28;;